sensor_id;sensor_type;location;lat;lon;timestamp;temperature;humidity
68354;DHT22;55274;43.060;25.618;2022-12-16T00:02:02;2.30;99.90
68354;DHT22;55274;43.060;25.618;2022-12-16T00:04:28;2.30;99.90
68354;DHT22;55274;43.060;25.618;2022-12-16T00:06:53;2.30;99.90
68354;DHT22;55274;43.060;25.618;2022-12-16T00:09:19;2.30;99.90
68354;DHT22;55274;43.060;25.618;2022-12-16T00:11:45;2.30;99.90
68354;DHT22;55274;43.060;25.618;2022-12-16T00:14:11;2.30;99.90
68354;DHT22;55274;43.060;25.618;2022-12-16T00:16:36;2.30;99.90
68354;DHT22;55274;43.060;25.618;2022-12-16T00:19:02;2.30;99.90
68354;DHT22;55274;43.060;25.618;2022-12-16T00:21:28;2.30;99.90
68354;DHT22;55274;43.060;25.618;2022-12-16T00:23:55;2.40;99.90
68354;DHT22;55274;43.060;25.618;2022-12-16T00:26:21;2.30;99.90
68354;DHT22;55274;43.060;25.618;2022-12-16T00:28:47;2.40;99.90
68354;DHT22;55274;43.060;25.618;2022-12-16T00:31:13;2.30;99.90
68354;DHT22;55274;43.060;25.618;2022-12-16T00:33:39;2.30;99.90
68354;DHT22;55274;43.060;25.618;2022-12-16T00:36:06;2.30;99.90
68354;DHT22;55274;43.060;25.618;2022-12-16T00:38:32;2.30;99.90
68354;DHT22;55274;43.060;25.618;2022-12-16T00:40:58;2.30;99.90
68354;DHT22;55274;43.060;25.618;2022-12-16T00:43:24;2.20;99.90
68354;DHT22;55274;43.060;25.618;2022-12-16T00:45:50;2.20;99.90
68354;DHT22;55274;43.060;25.618;2022-12-16T00:48:16;2.20;99.90
68354;DHT22;55274;43.060;25.618;2022-12-16T00:50:50;2.20;99.90
68354;DHT22;55274;43.060;25.618;2022-12-16T00:53:16;2.10;99.90
68354;DHT22;55274;43.060;25.618;2022-12-16T00:55:42;2.10;99.90
68354;DHT22;55274;43.060;25.618;2022-12-16T00:58:08;2.00;99.90
68354;DHT22;55274;43.060;25.618;2022-12-16T01:00:34;2.00;99.90
68354;DHT22;55274;43.060;25.618;2022-12-16T01:03:00;2.00;99.90
68354;DHT22;55274;43.060;25.618;2022-12-16T01:05:26;2.10;99.90
68354;DHT22;55274;43.060;25.618;2022-12-16T01:07:55;2.10;99.90
68354;DHT22;55274;43.060;25.618;2022-12-16T01:10:23;2.10;99.90
68354;DHT22;55274;43.060;25.618;2022-12-16T01:12:49;2.10;99.90
68354;DHT22;55274;43.060;25.618;2022-12-16T01:15:15;2.10;99.90
68354;DHT22;55274;43.060;25.618;2022-12-16T01:17:41;2.10;99.90
68354;DHT22;55274;43.060;25.618;2022-12-16T01:20:08;2.10;99.90
68354;DHT22;55274;43.060;25.618;2022-12-16T01:22:34;2.10;99.90
68354;DHT22;55274;43.060;25.618;2022-12-16T01:25:01;2.10;99.90
68354;DHT22;55274;43.060;25.618;2022-12-16T01:27:28;2.00;99.90
68354;DHT22;55274;43.060;25.618;2022-12-16T01:29:54;2.00;99.90
68354;DHT22;55274;43.060;25.618;2022-12-16T01:32:20;2.00;99.90
68354;DHT22;55274;43.060;25.618;2022-12-16T01:34:53;2.10;99.90
68354;DHT22;55274;43.060;25.618;2022-12-16T01:37:19;2.10;99.90
68354;DHT22;55274;43.060;25.618;2022-12-16T01:39:46;2.10;99.90
68354;DHT22;55274;43.060;25.618;2022-12-16T01:42:18;2.10;99.90
68354;DHT22;55274;43.060;25.618;2022-12-16T01:44:47;2.00;99.90
68354;DHT22;55274;43.060;25.618;2022-12-16T01:47:20;2.00;99.90
68354;DHT22;55274;43.060;25.618;2022-12-16T01:52:27;2.00;99.90
68354;DHT22;55274;43.060;25.618;2022-12-16T01:55:05;2.00;99.90
68354;DHT22;55274;43.060;25.618;2022-12-16T01:57:37;2.00;99.90
68354;DHT22;55274;43.060;25.618;2022-12-16T02:00:05;2.00;99.90
68354;DHT22;55274;43.060;25.618;2022-12-16T02:02:32;2.00;99.90
68354;DHT22;55274;43.060;25.618;2022-12-16T02:04:59;2.00;99.90
68354;DHT22;55274;43.060;25.618;2022-12-16T02:07:53;2.00;99.90
68354;DHT22;55274;43.060;25.618;2022-12-16T02:10:24;1.90;99.90
68354;DHT22;55274;43.060;25.618;2022-12-16T02:13:06;1.90;99.90
68354;DHT22;55274;43.060;25.618;2022-12-16T02:40:35;1.80;99.90
68354;DHT22;55274;43.060;25.618;2022-12-16T02:45:54;1.90;99.90
68354;DHT22;55274;43.060;25.618;2022-12-16T02:48:19;1.80;99.90
68354;DHT22;55274;43.060;25.618;2022-12-16T02:50:48;1.80;99.90
68354;DHT22;55274;43.060;25.618;2022-12-16T02:53:16;1.80;99.90
68354;DHT22;55274;43.060;25.618;2022-12-16T02:56:15;1.80;99.90
68354;DHT22;55274;43.060;25.618;2022-12-16T03:01:47;1.80;99.90
68354;DHT22;55274;43.060;25.618;2022-12-16T03:04:25;1.80;99.90
68354;DHT22;55274;43.060;25.618;2022-12-16T03:06:53;1.80;99.90
68354;DHT22;55274;43.060;25.618;2022-12-16T03:09:24;1.80;99.90
68354;DHT22;55274;43.060;25.618;2022-12-16T03:11:53;1.80;99.90
68354;DHT22;55274;43.060;25.618;2022-12-16T03:14:21;1.80;99.90
68354;DHT22;55274;43.060;25.618;2022-12-16T03:16:49;1.80;99.90
68354;DHT22;55274;43.060;25.618;2022-12-16T03:19:15;1.80;99.90
68354;DHT22;55274;43.060;25.618;2022-12-16T03:22:33;1.90;99.90
68354;DHT22;55274;43.060;25.618;2022-12-16T03:24:34;1.90;99.90
68354;DHT22;55274;43.060;25.618;2022-12-16T03:27:15;1.90;99.90
68354;DHT22;55274;43.060;25.618;2022-12-16T03:30:05;1.90;99.90
68354;DHT22;55274;43.060;25.618;2022-12-16T03:32:43;1.90;99.90
68354;DHT22;55274;43.060;25.618;2022-12-16T03:35:32;1.90;99.90
68354;DHT22;55274;43.060;25.618;2022-12-16T03:38:01;1.80;99.90
68354;DHT22;55274;43.060;25.618;2022-12-16T03:40:28;1.80;99.90
68354;DHT22;55274;43.060;25.618;2022-12-16T03:42:54;1.80;99.90
68354;DHT22;55274;43.060;25.618;2022-12-16T03:45:27;1.90;99.90
68354;DHT22;55274;43.060;25.618;2022-12-16T03:47:57;1.90;99.90
68354;DHT22;55274;43.060;25.618;2022-12-16T03:50:27;1.90;99.90
68354;DHT22;55274;43.060;25.618;2022-12-16T03:52:54;1.90;99.90
68354;DHT22;55274;43.060;25.618;2022-12-16T03:55:20;1.90;99.90
68354;DHT22;55274;43.060;25.618;2022-12-16T03:57:45;1.90;99.90
68354;DHT22;55274;43.060;25.618;2022-12-16T04:00:11;1.90;99.90
68354;DHT22;55274;43.060;25.618;2022-12-16T04:02:37;1.90;99.90
68354;DHT22;55274;43.060;25.618;2022-12-16T04:05:03;1.90;99.90
68354;DHT22;55274;43.060;25.618;2022-12-16T04:07:29;1.90;99.90
68354;DHT22;55274;43.060;25.618;2022-12-16T04:09:56;1.90;99.90
68354;DHT22;55274;43.060;25.618;2022-12-16T04:12:22;1.90;99.90
68354;DHT22;55274;43.060;25.618;2022-12-16T04:15:06;1.90;99.90
68354;DHT22;55274;43.060;25.618;2022-12-16T04:17:51;1.90;99.90
68354;DHT22;55274;43.060;25.618;2022-12-16T04:20:38;1.90;99.90
68354;DHT22;55274;43.060;25.618;2022-12-16T04:23:25;1.90;99.90
68354;DHT22;55274;43.060;25.618;2022-12-16T04:26:11;1.90;99.90
68354;DHT22;55274;43.060;25.618;2022-12-16T04:28:37;1.90;99.90
68354;DHT22;55274;43.060;25.618;2022-12-16T04:31:03;1.90;99.90
68354;DHT22;55274;43.060;25.618;2022-12-16T04:33:29;1.90;99.90
68354;DHT22;55274;43.060;25.618;2022-12-16T04:36:13;1.90;99.90
68354;DHT22;55274;43.060;25.618;2022-12-16T04:38:57;1.90;99.90
68354;DHT22;55274;43.060;25.618;2022-12-16T04:41:42;1.90;99.90
68354;DHT22;55274;43.060;25.618;2022-12-16T04:44:26;1.90;99.90
68354;DHT22;55274;43.060;25.618;2022-12-16T04:47:11;1.90;99.90
68354;DHT22;55274;43.060;25.618;2022-12-16T04:49:55;1.90;99.90
68354;DHT22;55274;43.060;25.618;2022-12-16T04:52:39;1.90;99.90
68354;DHT22;55274;43.060;25.618;2022-12-16T04:55:23;2.00;99.90
68354;DHT22;55274;43.060;25.618;2022-12-16T04:58:08;2.00;99.90
68354;DHT22;55274;43.060;25.618;2022-12-16T05:00:52;1.90;99.90
68354;DHT22;55274;43.060;25.618;2022-12-16T05:03:36;1.90;99.90
68354;DHT22;55274;43.060;25.618;2022-12-16T05:06:21;2.00;99.90
68354;DHT22;55274;43.060;25.618;2022-12-16T05:09:05;2.00;99.90
68354;DHT22;55274;43.060;25.618;2022-12-16T05:11:50;2.00;99.90
68354;DHT22;55274;43.060;25.618;2022-12-16T05:14:34;1.90;99.90
68354;DHT22;55274;43.060;25.618;2022-12-16T05:17:20;1.90;99.90
68354;DHT22;55274;43.060;25.618;2022-12-16T05:20:05;1.90;99.90
68354;DHT22;55274;43.060;25.618;2022-12-16T05:22:50;1.90;99.90
68354;DHT22;55274;43.060;25.618;2022-12-16T05:25:34;1.90;99.90
68354;DHT22;55274;43.060;25.618;2022-12-16T05:28:19;1.90;99.90
68354;DHT22;55274;43.060;25.618;2022-12-16T05:31:03;1.90;99.90
68354;DHT22;55274;43.060;25.618;2022-12-16T05:33:47;1.90;99.90
68354;DHT22;55274;43.060;25.618;2022-12-16T05:36:32;1.90;99.90
68354;DHT22;55274;43.060;25.618;2022-12-16T05:39:16;2.00;99.90
68354;DHT22;55274;43.060;25.618;2022-12-16T05:42:00;2.00;99.90
68354;DHT22;55274;43.060;25.618;2022-12-16T05:44:45;2.00;99.90
68354;DHT22;55274;43.060;25.618;2022-12-16T05:47:29;2.00;99.90
68354;DHT22;55274;43.060;25.618;2022-12-16T05:50:13;2.00;99.90
68354;DHT22;55274;43.060;25.618;2022-12-16T05:52:58;2.00;99.90
68354;DHT22;55274;43.060;25.618;2022-12-16T05:55:42;2.10;99.90
68354;DHT22;55274;43.060;25.618;2022-12-16T05:58:27;2.10;99.90
68354;DHT22;55274;43.060;25.618;2022-12-16T06:01:11;2.10;99.90
68354;DHT22;55274;43.060;25.618;2022-12-16T06:03:55;2.10;99.90
68354;DHT22;55274;43.060;25.618;2022-12-16T06:06:40;2.20;99.90
68354;DHT22;55274;43.060;25.618;2022-12-16T06:09:25;2.20;99.90
68354;DHT22;55274;43.060;25.618;2022-12-16T06:12:10;2.20;99.90
68354;DHT22;55274;43.060;25.618;2022-12-16T06:14:54;2.20;99.90
68354;DHT22;55274;43.060;25.618;2022-12-16T06:17:46;2.30;99.90
68354;DHT22;55274;43.060;25.618;2022-12-16T06:20:31;2.40;99.90
68354;DHT22;55274;43.060;25.618;2022-12-16T06:23:15;2.40;99.90
68354;DHT22;55274;43.060;25.618;2022-12-16T06:26:00;2.40;99.90
68354;DHT22;55274;43.060;25.618;2022-12-16T06:28:44;2.50;99.90
68354;DHT22;55274;43.060;25.618;2022-12-16T06:31:28;2.60;99.90
68354;DHT22;55274;43.060;25.618;2022-12-16T06:34:13;2.60;99.90
68354;DHT22;55274;43.060;25.618;2022-12-16T06:36:57;2.70;99.90
68354;DHT22;55274;43.060;25.618;2022-12-16T06:39:41;2.80;99.90
68354;DHT22;55274;43.060;25.618;2022-12-16T06:42:25;2.80;99.90
68354;DHT22;55274;43.060;25.618;2022-12-16T06:45:10;2.90;99.90
68354;DHT22;55274;43.060;25.618;2022-12-16T06:47:54;3.00;99.90
68354;DHT22;55274;43.060;25.618;2022-12-16T06:50:39;3.10;99.90
68354;DHT22;55274;43.060;25.618;2022-12-16T06:53:23;3.20;99.90
68354;DHT22;55274;43.060;25.618;2022-12-16T06:56:08;3.30;99.90
68354;DHT22;55274;43.060;25.618;2022-12-16T06:58:52;3.30;99.90
68354;DHT22;55274;43.060;25.618;2022-12-16T07:01:47;3.40;99.90
68354;DHT22;55274;43.060;25.618;2022-12-16T07:04:31;3.50;99.90
68354;DHT22;55274;43.060;25.618;2022-12-16T07:07:16;3.60;99.90
68354;DHT22;55274;43.060;25.618;2022-12-16T07:10:00;3.60;99.90
68354;DHT22;55274;43.060;25.618;2022-12-16T07:12:44;3.70;99.90
68354;DHT22;55274;43.060;25.618;2022-12-16T07:15:28;3.70;99.90
68354;DHT22;55274;43.060;25.618;2022-12-16T07:18:13;3.80;99.90
68354;DHT22;55274;43.060;25.618;2022-12-16T07:20:57;3.90;99.90
68354;DHT22;55274;43.060;25.618;2022-12-16T07:23:42;4.00;99.90
68354;DHT22;55274;43.060;25.618;2022-12-16T07:26:26;4.10;99.90
68354;DHT22;55274;43.060;25.618;2022-12-16T07:29:10;4.20;99.90
68354;DHT22;55274;43.060;25.618;2022-12-16T07:31:55;4.20;99.90
68354;DHT22;55274;43.060;25.618;2022-12-16T07:34:39;4.30;99.90
68354;DHT22;55274;43.060;25.618;2022-12-16T07:37:23;4.30;99.90
68354;DHT22;55274;43.060;25.618;2022-12-16T07:40:08;4.40;99.90
68354;DHT22;55274;43.060;25.618;2022-12-16T07:42:52;4.40;99.90
68354;DHT22;55274;43.060;25.618;2022-12-16T07:45:37;4.50;99.90
68354;DHT22;55274;43.060;25.618;2022-12-16T07:48:21;4.60;99.90
68354;DHT22;55274;43.060;25.618;2022-12-16T07:51:05;4.60;99.90
68354;DHT22;55274;43.060;25.618;2022-12-16T07:53:50;4.60;99.90
68354;DHT22;55274;43.060;25.618;2022-12-16T07:56:34;4.60;99.90
68354;DHT22;55274;43.060;25.618;2022-12-16T07:59:18;4.70;99.90
68354;DHT22;55274;43.060;25.618;2022-12-16T08:02:03;4.80;99.90
68354;DHT22;55274;43.060;25.618;2022-12-16T08:04:47;4.80;99.90
68354;DHT22;55274;43.060;25.618;2022-12-16T08:07:31;4.90;99.90
68354;DHT22;55274;43.060;25.618;2022-12-16T08:10:16;4.90;99.90
68354;DHT22;55274;43.060;25.618;2022-12-16T08:13:02;5.00;99.90
68354;DHT22;55274;43.060;25.618;2022-12-16T08:15:46;5.00;99.90
68354;DHT22;55274;43.060;25.618;2022-12-16T08:18:31;5.10;99.90
68354;DHT22;55274;43.060;25.618;2022-12-16T08:21:15;5.20;99.90
68354;DHT22;55274;43.060;25.618;2022-12-16T08:24:00;5.20;99.90
68354;DHT22;55274;43.060;25.618;2022-12-16T08:26:44;5.30;99.90
68354;DHT22;55274;43.060;25.618;2022-12-16T08:29:28;5.30;99.90
68354;DHT22;55274;43.060;25.618;2022-12-16T08:32:14;5.40;99.90
68354;DHT22;55274;43.060;25.618;2022-12-16T08:34:59;5.40;99.90
68354;DHT22;55274;43.060;25.618;2022-12-16T08:37:43;5.50;99.90
68354;DHT22;55274;43.060;25.618;2022-12-16T08:40:27;5.50;99.90
68354;DHT22;55274;43.060;25.618;2022-12-16T08:43:12;5.60;99.90
68354;DHT22;55274;43.060;25.618;2022-12-16T08:45:56;5.70;99.90
68354;DHT22;55274;43.060;25.618;2022-12-16T08:48:40;5.80;99.90
68354;DHT22;55274;43.060;25.618;2022-12-16T08:51:24;5.80;99.90
68354;DHT22;55274;43.060;25.618;2022-12-16T08:54:08;5.80;99.90
68354;DHT22;55274;43.060;25.618;2022-12-16T08:56:53;5.90;99.90
68354;DHT22;55274;43.060;25.618;2022-12-16T08:59:37;6.00;99.90
68354;DHT22;55274;43.060;25.618;2022-12-16T09:02:21;6.20;99.90
68354;DHT22;55274;43.060;25.618;2022-12-16T09:05:06;6.50;99.90
68354;DHT22;55274;43.060;25.618;2022-12-16T09:07:51;6.60;99.90
68354;DHT22;55274;43.060;25.618;2022-12-16T09:10:35;6.70;99.90
68354;DHT22;55274;43.060;25.618;2022-12-16T09:13:19;6.90;99.90
68354;DHT22;55274;43.060;25.618;2022-12-16T09:16:04;7.20;99.90
68354;DHT22;55274;43.060;25.618;2022-12-16T09:18:50;7.40;99.90
68354;DHT22;55274;43.060;25.618;2022-12-16T09:21:34;7.40;99.90
68354;DHT22;55274;43.060;25.618;2022-12-16T09:24:19;7.30;99.90
68354;DHT22;55274;43.060;25.618;2022-12-16T09:27:03;7.40;99.90
68354;DHT22;55274;43.060;25.618;2022-12-16T09:29:47;7.50;99.90
68354;DHT22;55274;43.060;25.618;2022-12-16T09:32:32;7.60;99.90
68354;DHT22;55274;43.060;25.618;2022-12-16T09:35:16;7.60;99.90
68354;DHT22;55274;43.060;25.618;2022-12-16T09:38:00;7.70;99.90
68354;DHT22;55274;43.060;25.618;2022-12-16T09:40:45;7.70;99.90
68354;DHT22;55274;43.060;25.618;2022-12-16T09:43:54;7.90;99.90
68354;DHT22;55274;43.060;25.618;2022-12-16T09:50:23;8.20;99.90
68354;DHT22;55274;43.060;25.618;2022-12-16T09:53:12;8.30;99.90
68354;DHT22;55274;43.060;25.618;2022-12-16T09:55:57;8.40;99.90
68354;DHT22;55274;43.060;25.618;2022-12-16T09:58:49;8.50;99.90
68354;DHT22;55274;43.060;25.618;2022-12-16T10:01:36;8.70;99.90
68354;DHT22;55274;43.060;25.618;2022-12-16T10:04:21;8.80;99.90
68354;DHT22;55274;43.060;25.618;2022-12-16T10:07:30;9.00;99.90
68354;DHT22;55274;43.060;25.618;2022-12-16T10:13:54;9.30;99.90
68354;DHT22;55274;43.060;25.618;2022-12-16T10:16:50;9.40;99.90
68354;DHT22;55274;43.060;25.618;2022-12-16T10:25:30;9.80;99.90
68354;DHT22;55274;43.060;25.618;2022-12-16T10:31:24;10.10;99.90
68354;DHT22;55274;43.060;25.618;2022-12-16T10:34:16;10.00;99.90
68354;DHT22;55274;43.060;25.618;2022-12-16T10:37:01;10.00;99.90
68354;DHT22;55274;43.060;25.618;2022-12-16T10:39:54;10.00;99.90
68354;DHT22;55274;43.060;25.618;2022-12-16T10:42:51;10.20;99.90
68354;DHT22;55274;43.060;25.618;2022-12-16T10:45:43;10.30;99.90
68354;DHT22;55274;43.060;25.618;2022-12-16T10:48:30;10.30;99.90
68354;DHT22;55274;43.060;25.618;2022-12-16T10:51:17;10.40;99.90
68354;DHT22;55274;43.060;25.618;2022-12-16T10:57:07;10.40;99.90
68354;DHT22;55274;43.060;25.618;2022-12-16T11:00:14;10.50;99.90
68354;DHT22;55274;43.060;25.618;2022-12-16T11:03:35;10.40;99.90
68354;DHT22;55274;43.060;25.618;2022-12-16T11:06:26;10.30;99.90
68354;DHT22;55274;43.060;25.618;2022-12-16T11:09:31;10.20;99.90
68354;DHT22;55274;43.060;25.618;2022-12-16T11:12:25;10.20;99.90
68354;DHT22;55274;43.060;25.618;2022-12-16T11:15:24;10.20;99.90
68354;DHT22;55274;43.060;25.618;2022-12-16T11:18:20;10.30;99.90
68354;DHT22;55274;43.060;25.618;2022-12-16T11:24:06;10.30;99.90
68354;DHT22;55274;43.060;25.618;2022-12-16T11:26:55;10.40;99.90
68354;DHT22;55274;43.060;25.618;2022-12-16T11:30:00;10.40;99.90
68354;DHT22;55274;43.060;25.618;2022-12-16T11:32:56;10.40;99.90
68354;DHT22;55274;43.060;25.618;2022-12-16T11:35:45;10.40;99.90
68354;DHT22;55274;43.060;25.618;2022-12-16T11:38:41;10.30;99.90
68354;DHT22;55274;43.060;25.618;2022-12-16T11:41:38;10.40;99.90
68354;DHT22;55274;43.060;25.618;2022-12-16T11:44:32;10.50;99.90
68354;DHT22;55274;43.060;25.618;2022-12-16T11:47:31;10.50;99.90
68354;DHT22;55274;43.060;25.618;2022-12-16T11:50:19;10.50;99.90
68354;DHT22;55274;43.060;25.618;2022-12-16T11:53:21;10.60;99.90
68354;DHT22;55274;43.060;25.618;2022-12-16T11:56:13;10.70;99.90
68354;DHT22;55274;43.060;25.618;2022-12-16T11:59:08;10.80;99.90
68354;DHT22;55274;43.060;25.618;2022-12-16T12:01:58;10.80;99.90
68354;DHT22;55274;43.060;25.618;2022-12-16T12:04:46;10.80;99.90
68354;DHT22;55274;43.060;25.618;2022-12-16T12:10:43;10.80;99.90
68354;DHT22;55274;43.060;25.618;2022-12-16T12:22:38;10.80;99.90
68354;DHT22;55274;43.060;25.618;2022-12-16T12:25:45;10.90;99.90
68354;DHT22;55274;43.060;25.618;2022-12-16T12:29:01;11.10;99.90
68354;DHT22;55274;43.060;25.618;2022-12-16T12:38:18;11.30;99.90
68354;DHT22;55274;43.060;25.618;2022-12-16T12:41:26;11.40;99.90
68354;DHT22;55274;43.060;25.618;2022-12-16T12:44:22;11.50;99.90
68354;DHT22;55274;43.060;25.618;2022-12-16T12:47:15;11.50;99.90
68354;DHT22;55274;43.060;25.618;2022-12-16T12:50:10;11.50;99.90
68354;DHT22;55274;43.060;25.618;2022-12-16T12:59:00;11.60;99.90
68354;DHT22;55274;43.060;25.618;2022-12-16T13:01:47;11.70;99.90
68354;DHT22;55274;43.060;25.618;2022-12-16T13:04:33;11.70;99.90
68354;DHT22;55274;43.060;25.618;2022-12-16T13:07:18;11.60;99.90
68354;DHT22;55274;43.060;25.618;2022-12-16T13:10:32;11.60;99.90
68354;DHT22;55274;43.060;25.618;2022-12-16T13:16:10;11.50;99.90
68354;DHT22;55274;43.060;25.618;2022-12-16T13:22:34;11.40;99.90
68354;DHT22;55274;43.060;25.618;2022-12-16T13:25:51;11.30;99.90
68354;DHT22;55274;43.060;25.618;2022-12-16T13:28:39;11.30;99.90
68354;DHT22;55274;43.060;25.618;2022-12-16T13:31:24;11.30;99.90
68354;DHT22;55274;43.060;25.618;2022-12-16T13:37:02;11.30;99.90
68354;DHT22;55274;43.060;25.618;2022-12-16T13:40:18;11.20;99.90
68354;DHT22;55274;43.060;25.618;2022-12-16T13:43:03;11.10;99.90
68354;DHT22;55274;43.060;25.618;2022-12-16T13:48:44;11.10;99.90
68354;DHT22;55274;43.060;25.618;2022-12-16T13:54:50;11.00;99.90
68354;DHT22;55274;43.060;25.618;2022-12-16T13:57:38;11.00;99.90
68354;DHT22;55274;43.060;25.618;2022-12-16T14:00:25;10.90;99.90
68354;DHT22;55274;43.060;25.618;2022-12-16T14:03:32;10.90;99.90
68354;DHT22;55274;43.060;25.618;2022-12-16T14:06:23;10.80;99.90
68354;DHT22;55274;43.060;25.618;2022-12-16T14:09:36;10.70;99.90
68354;DHT22;55274;43.060;25.618;2022-12-16T14:25:44;10.10;99.90
68354;DHT22;55274;43.060;25.618;2022-12-16T14:28:32;10.00;99.90
68354;DHT22;55274;43.060;25.618;2022-12-16T14:31:21;10.00;99.90
68354;DHT22;55274;43.060;25.618;2022-12-16T14:34:33;9.90;99.90
68354;DHT22;55274;43.060;25.618;2022-12-16T14:40:03;9.70;99.90
68354;DHT22;55274;43.060;25.618;2022-12-16T14:42:52;9.70;99.90
68354;DHT22;55274;43.060;25.618;2022-12-16T14:45:47;9.70;99.90
68354;DHT22;55274;43.060;25.618;2022-12-16T14:48:38;9.60;99.90
68354;DHT22;55274;43.060;25.618;2022-12-16T14:51:26;9.50;99.90
68354;DHT22;55274;43.060;25.618;2022-12-16T14:57:19;9.40;99.90
68354;DHT22;55274;43.060;25.618;2022-12-16T15:00:16;9.30;99.90
68354;DHT22;55274;43.060;25.618;2022-12-16T15:03:17;9.30;99.90
68354;DHT22;55274;43.060;25.618;2022-12-16T15:06:10;9.20;99.90
68354;DHT22;55274;43.060;25.618;2022-12-16T15:09:00;9.20;99.90
68354;DHT22;55274;43.060;25.618;2022-12-16T15:11:45;9.30;99.90
68354;DHT22;55274;43.060;25.618;2022-12-16T15:14:36;9.30;99.90
68354;DHT22;55274;43.060;25.618;2022-12-16T15:17:28;9.20;99.90
68354;DHT22;55274;43.060;25.618;2022-12-16T15:20:20;9.20;99.90
68354;DHT22;55274;43.060;25.618;2022-12-16T15:23:20;9.10;99.90
68354;DHT22;55274;43.060;25.618;2022-12-16T15:26:06;9.10;99.90
68354;DHT22;55274;43.060;25.618;2022-12-16T15:28:50;9.10;99.90
68354;DHT22;55274;43.060;25.618;2022-12-16T15:31:38;9.10;99.90
68354;DHT22;55274;43.060;25.618;2022-12-16T15:34:29;9.20;99.90
68354;DHT22;55274;43.060;25.618;2022-12-16T15:37:27;9.50;99.90
68354;DHT22;55274;43.060;25.618;2022-12-16T15:43:04;10.50;99.90
68354;DHT22;55274;43.060;25.618;2022-12-16T15:45:49;10.10;99.90
68354;DHT22;55274;43.060;25.618;2022-12-16T15:48:35;9.80;99.90
68354;DHT22;55274;43.060;25.618;2022-12-16T15:51:23;9.70;99.90
68354;DHT22;55274;43.060;25.618;2022-12-16T15:54:21;9.50;99.90
68354;DHT22;55274;43.060;25.618;2022-12-16T15:57:29;9.40;99.90
68354;DHT22;55274;43.060;25.618;2022-12-16T16:00:22;9.40;99.90
68354;DHT22;55274;43.060;25.618;2022-12-16T16:03:24;9.30;99.90
68354;DHT22;55274;43.060;25.618;2022-12-16T16:08:59;9.80;99.90
68354;DHT22;55274;43.060;25.618;2022-12-16T16:11:43;10.40;99.90
68354;DHT22;55274;43.060;25.618;2022-12-16T16:14:27;10.60;99.90
68354;DHT22;55274;43.060;25.618;2022-12-16T16:17:21;11.10;99.90
68354;DHT22;55274;43.060;25.618;2022-12-16T16:20:08;11.70;99.90
68354;DHT22;55274;43.060;25.618;2022-12-16T16:22:57;12.60;99.90
68354;DHT22;55274;43.060;25.618;2022-12-16T16:25:41;13.20;99.90
68354;DHT22;55274;43.060;25.618;2022-12-16T16:28:25;13.20;99.90
68354;DHT22;55274;43.060;25.618;2022-12-16T16:31:10;13.60;99.90
68354;DHT22;55274;43.060;25.618;2022-12-16T16:33:54;13.60;99.90
68354;DHT22;55274;43.060;25.618;2022-12-16T16:36:38;13.60;99.90
68354;DHT22;55274;43.060;25.618;2022-12-16T16:39:22;12.70;99.90
68354;DHT22;55274;43.060;25.618;2022-12-16T16:42:08;12.20;99.90
68354;DHT22;55274;43.060;25.618;2022-12-16T16:44:52;11.80;99.90
68354;DHT22;55274;43.060;25.618;2022-12-16T16:47:37;11.30;99.90
68354;DHT22;55274;43.060;25.618;2022-12-16T16:50:21;11.00;99.90
68354;DHT22;55274;43.060;25.618;2022-12-16T16:53:13;11.10;99.90
68354;DHT22;55274;43.060;25.618;2022-12-16T16:55:58;10.90;99.90
68354;DHT22;55274;43.060;25.618;2022-12-16T16:58:42;10.80;99.90
68354;DHT22;55274;43.060;25.618;2022-12-16T17:01:27;10.50;99.90
68354;DHT22;55274;43.060;25.618;2022-12-16T17:04:11;10.20;99.90
68354;DHT22;55274;43.060;25.618;2022-12-16T17:06:55;10.10;99.90
68354;DHT22;55274;43.060;25.618;2022-12-16T17:09:40;9.90;99.90
68354;DHT22;55274;43.060;25.618;2022-12-16T17:12:27;9.70;99.90
68354;DHT22;55274;43.060;25.618;2022-12-16T17:17:59;9.60;99.90
68354;DHT22;55274;43.060;25.618;2022-12-16T17:20:43;9.50;99.90
68354;DHT22;55274;43.060;25.618;2022-12-16T17:23:28;9.40;99.90
68354;DHT22;55274;43.060;25.618;2022-12-16T17:26:12;9.40;99.90
68354;DHT22;55274;43.060;25.618;2022-12-16T17:29:00;9.30;99.90
68354;DHT22;55274;43.060;25.618;2022-12-16T17:31:44;9.30;99.90
68354;DHT22;55274;43.060;25.618;2022-12-16T17:34:28;9.20;99.90
68354;DHT22;55274;43.060;25.618;2022-12-16T17:37:13;9.00;99.90
68354;DHT22;55274;43.060;25.618;2022-12-16T17:39:57;9.00;99.90
68354;DHT22;55274;43.060;25.618;2022-12-16T17:42:41;8.90;99.90
68354;DHT22;55274;43.060;25.618;2022-12-16T17:45:26;8.80;99.90
68354;DHT22;55274;43.060;25.618;2022-12-16T17:48:10;8.70;99.90
68354;DHT22;55274;43.060;25.618;2022-12-16T17:50:55;8.70;99.90
68354;DHT22;55274;43.060;25.618;2022-12-16T17:53:39;8.60;99.90
68354;DHT22;55274;43.060;25.618;2022-12-16T17:56:23;8.50;99.90
68354;DHT22;55274;43.060;25.618;2022-12-16T17:59:08;8.50;99.90
68354;DHT22;55274;43.060;25.618;2022-12-16T18:01:53;8.60;99.90
68354;DHT22;55274;43.060;25.618;2022-12-16T18:04:37;8.60;99.90
68354;DHT22;55274;43.060;25.618;2022-12-16T18:07:22;8.60;99.90
68354;DHT22;55274;43.060;25.618;2022-12-16T18:10:06;8.60;99.90
68354;DHT22;55274;43.060;25.618;2022-12-16T18:12:51;8.50;99.90
68354;DHT22;55274;43.060;25.618;2022-12-16T18:15:35;8.40;99.90
68354;DHT22;55274;43.060;25.618;2022-12-16T18:18:20;8.40;99.90
68354;DHT22;55274;43.060;25.618;2022-12-16T18:21:11;8.40;99.90
68354;DHT22;55274;43.060;25.618;2022-12-16T18:23:56;8.30;99.90
68354;DHT22;55274;43.060;25.618;2022-12-16T18:26:51;8.30;99.90
68354;DHT22;55274;43.060;25.618;2022-12-16T18:29:36;8.20;99.90
68354;DHT22;55274;43.060;25.618;2022-12-16T18:32:20;8.30;99.90
68354;DHT22;55274;43.060;25.618;2022-12-16T18:35:05;8.30;99.90
68354;DHT22;55274;43.060;25.618;2022-12-16T18:37:49;8.30;99.90
68354;DHT22;55274;43.060;25.618;2022-12-16T18:40:34;8.30;99.90
68354;DHT22;55274;43.060;25.618;2022-12-16T18:43:18;8.30;99.90
68354;DHT22;55274;43.060;25.618;2022-12-16T18:46:02;8.30;99.90
68354;DHT22;55274;43.060;25.618;2022-12-16T18:48:46;8.30;99.90
68354;DHT22;55274;43.060;25.618;2022-12-16T18:51:32;8.40;99.90
68354;DHT22;55274;43.060;25.618;2022-12-16T18:54:16;8.40;99.90
68354;DHT22;55274;43.060;25.618;2022-12-16T18:57:01;8.40;99.90
68354;DHT22;55274;43.060;25.618;2022-12-16T18:59:45;8.30;99.90
68354;DHT22;55274;43.060;25.618;2022-12-16T19:02:30;8.30;99.90
68354;DHT22;55274;43.060;25.618;2022-12-16T19:05:14;8.30;99.90
68354;DHT22;55274;43.060;25.618;2022-12-16T19:07:58;8.20;99.90
68354;DHT22;55274;43.060;25.618;2022-12-16T19:10:43;8.10;99.90
68354;DHT22;55274;43.060;25.618;2022-12-16T19:13:27;8.20;99.90